<?xml version="1.0" encoding="UTF-8" standalone="no" ?>
<gpx xmlns="http://www.topografix.com/GPX/1/1" xmlns:xsi="http://www.w3.org/2001/XMLSchema-instance" xsi:schemaLocation="http://www.topografix.com/GPX/1/1 http://www.topografix.com/GPX/1/1/gpx.xsd" version="1.1" creator="VisuGPX - https://www.visugpx.com">
  <metadata>
    <name>Vacances 2021</name>
  </metadata>
  <trk>
    <name><![CDATA[Journal actif: 2021-07-26 11:23]]></name>
    <trkseg>
      <trkpt lat="49.43988" lon="3.78653">
        <ele>85.21</ele>
        <time>2021-07-26T13:23:02Z</time>
      </trkpt>
      <trkpt lat="49.43894" lon="3.78595">
        <ele>81.37</ele>
        <time>2021-07-26T13:23:17Z</time>
      </trkpt>
      <trkpt lat="49.43868" lon="3.78544">
        <ele>79.93</ele>
        <time>2021-07-26T13:23:28Z</time>
      </trkpt>
      <trkpt lat="49.43823" lon="3.78387">
        <ele>79.93</ele>
        <time>2021-07-26T13:23:44Z</time>
      </trkpt>
      <trkpt lat="49.43814" lon="3.78367">
        <ele>80.41</ele>
        <time>2021-07-26T13:23:53Z</time>
      </trkpt>
      <trkpt lat="49.43813" lon="3.78365">
        <ele>80.41</ele>
        <time>2021-07-26T13:23:54Z</time>
      </trkpt>
      <trkpt lat="49.43813" lon="3.78364">
        <ele>80.41</ele>
        <time>2021-07-26T13:23:55Z</time>
      </trkpt>
      <trkpt lat="49.43809" lon="3.78372">
        <ele>79.93</ele>
        <time>2021-07-26T13:24:07Z</time>
      </trkpt>
      <trkpt lat="49.43811" lon="3.78369">
        <ele>79.93</ele>
        <time>2021-07-26T13:25:36Z</time>
      </trkpt>
      <trkpt lat="49.43792" lon="3.78325">
        <ele>81.37</ele>
        <time>2021-07-26T13:25:45Z</time>
      </trkpt>
      <trkpt lat="49.4374" lon="3.78228">
        <ele>85.69</ele>
        <time>2021-07-26T13:25:53Z</time>
      </trkpt>
      <trkpt lat="49.43732" lon="3.78215">
        <ele>86.18</ele>
        <time>2021-07-26T13:25:54Z</time>
      </trkpt>
      <trkpt lat="49.4372" lon="3.78201">
        <ele>87.14</ele>
        <time>2021-07-26T13:25:55Z</time>
      </trkpt>
      <trkpt lat="49.4371" lon="3.78189">
        <ele>87.62</ele>
        <time>2021-07-26T13:25:56Z</time>
      </trkpt>
      <trkpt lat="49.43684" lon="3.78171">
        <ele>88.1</ele>
        <time>2021-07-26T13:25:57Z</time>
      </trkpt>
      <trkpt lat="49.43684" lon="3.78171">
        <ele>89.06</ele>
        <time>2021-07-26T13:25:58Z</time>
      </trkpt>
      <trkpt lat="49.43671" lon="3.78162">
        <ele>90.5</ele>
        <time>2021-07-26T13:25:59Z</time>
      </trkpt>
      <trkpt lat="49.43458" lon="3.78065">
        <ele>91.46</ele>
        <time>2021-07-26T13:26:16Z</time>
      </trkpt>
      <trkpt lat="49.43354" lon="3.77976">
        <ele>88.1</ele>
        <time>2021-07-26T13:26:25Z</time>
      </trkpt>
      <trkpt lat="49.43345" lon="3.77966">
        <ele>88.1</ele>
        <time>2021-07-26T13:26:26Z</time>
      </trkpt>
      <trkpt lat="49.43339" lon="3.77954">
        <ele>88.58</ele>
        <time>2021-07-26T13:26:27Z</time>
      </trkpt>
      <trkpt lat="49.43333" lon="3.7794">
        <ele>88.58</ele>
        <time>2021-07-26T13:26:28Z</time>
      </trkpt>
      <trkpt lat="49.43327" lon="3.77925">
        <ele>88.1</ele>
        <time>2021-07-26T13:26:29Z</time>
      </trkpt>
      <trkpt lat="49.43324" lon="3.77911">
        <ele>88.1</ele>
        <time>2021-07-26T13:26:30Z</time>
      </trkpt>
      <trkpt lat="49.43262" lon="3.77671">
        <ele>85.21</ele>
        <time>2021-07-26T13:26:45Z</time>
      </trkpt>
      <trkpt lat="49.43199" lon="3.77516">
        <ele>89.06</ele>
        <time>2021-07-26T13:26:56Z</time>
      </trkpt>
      <trkpt lat="49.43175" lon="3.77464">
        <ele>90.5</ele>
        <time>2021-07-26T13:27:04Z</time>
      </trkpt>
      <trkpt lat="49.43174" lon="3.77462">
        <ele>90.5</ele>
        <time>2021-07-26T13:27:05Z</time>
      </trkpt>
      <trkpt lat="49.43168" lon="3.77472">
        <ele>90.02</ele>
        <time>2021-07-26T13:27:21Z</time>
      </trkpt>
      <trkpt lat="49.4317" lon="3.7747">
        <ele>90.02</ele>
        <time>2021-07-26T13:27:29Z</time>
      </trkpt>
      <trkpt lat="49.43177" lon="3.77468">
        <ele>89.54</ele>
        <time>2021-07-26T13:27:32Z</time>
      </trkpt>
      <trkpt lat="49.43209" lon="3.77538">
        <ele>88.1</ele>
        <time>2021-07-26T13:27:44Z</time>
      </trkpt>
      <trkpt lat="49.43265" lon="3.77679">
        <ele>87.14</ele>
        <time>2021-07-26T13:27:54Z</time>
      </trkpt>
      <trkpt lat="49.43281" lon="3.7773">
        <ele>86.66</ele>
        <time>2021-07-26T13:27:59Z</time>
      </trkpt>
      <trkpt lat="49.43282" lon="3.77736">
        <ele>87.14</ele>
        <time>2021-07-26T13:28:09Z</time>
      </trkpt>
      <trkpt lat="49.43282" lon="3.77736">
        <ele>87.14</ele>
        <time>2021-07-26T13:28:48Z</time>
      </trkpt>
      <trkpt lat="49.43283" lon="3.77738">
        <ele>87.14</ele>
        <time>2021-07-26T13:28:49Z</time>
      </trkpt>
      <trkpt lat="49.43283" lon="3.77741">
        <ele>87.14</ele>
        <time>2021-07-26T13:28:50Z</time>
      </trkpt>
      <trkpt lat="49.43285" lon="3.77745">
        <ele>87.14</ele>
        <time>2021-07-26T13:28:51Z</time>
      </trkpt>
      <trkpt lat="49.43286" lon="3.77751">
        <ele>87.14</ele>
        <time>2021-07-26T13:28:52Z</time>
      </trkpt>
      <trkpt lat="49.4331" lon="3.77853">
        <ele>86.66</ele>
        <time>2021-07-26T13:29:01Z</time>
      </trkpt>
      <trkpt lat="49.43335" lon="3.77944">
        <ele>86.66</ele>
        <time>2021-07-26T13:29:06Z</time>
      </trkpt>
      <trkpt lat="49.43335" lon="3.77944">
        <ele>87.14</ele>
        <time>2021-07-26T13:29:07Z</time>
      </trkpt>
      <trkpt lat="49.43341" lon="3.77959">
        <ele>88.1</ele>
        <time>2021-07-26T13:29:08Z</time>
      </trkpt>
      <trkpt lat="49.43348" lon="3.77969">
        <ele>88.1</ele>
        <time>2021-07-26T13:29:09Z</time>
      </trkpt>
      <trkpt lat="49.4337" lon="3.77995">
        <ele>87.62</ele>
        <time>2021-07-26T13:29:10Z</time>
      </trkpt>
      <trkpt lat="49.4337" lon="3.77995">
        <ele>87.14</ele>
        <time>2021-07-26T13:29:11Z</time>
      </trkpt>
      <trkpt lat="49.43487" lon="3.78079">
        <ele>92.42</ele>
        <time>2021-07-26T13:29:19Z</time>
      </trkpt>
      <trkpt lat="49.43675" lon="3.78164">
        <ele>85.21</ele>
        <time>2021-07-26T13:29:32Z</time>
      </trkpt>
      <trkpt lat="49.43701" lon="3.78183">
        <ele>84.25</ele>
        <time>2021-07-26T13:29:34Z</time>
      </trkpt>
      <trkpt lat="49.43714" lon="3.78193">
        <ele>83.77</ele>
        <time>2021-07-26T13:29:35Z</time>
      </trkpt>
      <trkpt lat="49.43725" lon="3.78207">
        <ele>82.81</ele>
        <time>2021-07-26T13:29:36Z</time>
      </trkpt>
      <trkpt lat="49.43736" lon="3.7822">
        <ele>81.37</ele>
        <time>2021-07-26T13:29:37Z</time>
      </trkpt>
      <trkpt lat="49.43745" lon="3.78236">
        <ele>80.41</ele>
        <time>2021-07-26T13:29:38Z</time>
      </trkpt>
      <trkpt lat="49.43834" lon="3.78418">
        <ele>77.04</ele>
        <time>2021-07-26T13:29:49Z</time>
      </trkpt>
      <trkpt lat="49.43874" lon="3.78564">
        <ele>79.93</ele>
        <time>2021-07-26T13:29:58Z</time>
      </trkpt>
      <trkpt lat="49.43879" lon="3.78574">
        <ele>80.41</ele>
        <time>2021-07-26T13:29:59Z</time>
      </trkpt>
      <trkpt lat="49.43885" lon="3.78585">
        <ele>81.37</ele>
        <time>2021-07-26T13:30:00Z</time>
      </trkpt>
      <trkpt lat="49.43892" lon="3.78593">
        <ele>81.37</ele>
        <time>2021-07-26T13:30:01Z</time>
      </trkpt>
      <trkpt lat="49.43901" lon="3.78602">
        <ele>81.37</ele>
        <time>2021-07-26T13:30:02Z</time>
      </trkpt>
      <trkpt lat="49.43915" lon="3.78617">
        <ele>81.37</ele>
        <time>2021-07-26T13:30:03Z</time>
      </trkpt>
      <trkpt lat="49.43915" lon="3.78617">
        <ele>81.37</ele>
        <time>2021-07-26T13:30:04Z</time>
      </trkpt>
      <trkpt lat="49.43926" lon="3.78622">
        <ele>81.37</ele>
        <time>2021-07-26T13:30:05Z</time>
      </trkpt>
      <trkpt lat="49.44087" lon="3.78701">
        <ele>88.58</ele>
        <time>2021-07-26T13:30:22Z</time>
      </trkpt>
      <trkpt lat="49.44135" lon="3.78717">
        <ele>91.46</ele>
        <time>2021-07-26T13:30:27Z</time>
      </trkpt>
      <trkpt lat="49.44145" lon="3.78717">
        <ele>91.94</ele>
        <time>2021-07-26T13:30:28Z</time>
      </trkpt>
      <trkpt lat="49.44156" lon="3.78717">
        <ele>91.94</ele>
        <time>2021-07-26T13:30:29Z</time>
      </trkpt>
      <trkpt lat="49.44165" lon="3.78714">
        <ele>91.94</ele>
        <time>2021-07-26T13:30:30Z</time>
      </trkpt>
      <trkpt lat="49.44174" lon="3.78709">
        <ele>92.42</ele>
        <time>2021-07-26T13:30:31Z</time>
      </trkpt>
      <trkpt lat="49.44183" lon="3.78704">
        <ele>92.9</ele>
        <time>2021-07-26T13:30:32Z</time>
      </trkpt>
      <trkpt lat="49.44201" lon="3.78695">
        <ele>92.42</ele>
        <time>2021-07-26T13:30:33Z</time>
      </trkpt>
      <trkpt lat="49.4424" lon="3.78677">
        <ele>93.39</ele>
        <time>2021-07-26T13:30:37Z</time>
      </trkpt>
      <trkpt lat="49.4424" lon="3.78677">
        <ele>93.87</ele>
        <time>2021-07-26T13:30:38Z</time>
      </trkpt>
      <trkpt lat="49.44292" lon="3.78673">
        <ele>96.75</ele>
        <time>2021-07-26T13:30:43Z</time>
      </trkpt>
      <trkpt lat="49.44314" lon="3.78676">
        <ele>97.71</ele>
        <time>2021-07-26T13:30:44Z</time>
      </trkpt>
      <trkpt lat="49.44314" lon="3.78676">
        <ele>97.71</ele>
        <time>2021-07-26T13:30:45Z</time>
      </trkpt>
      <trkpt lat="49.44323" lon="3.78683">
        <ele>97.23</ele>
        <time>2021-07-26T13:30:46Z</time>
      </trkpt>
      <trkpt lat="49.44333" lon="3.7869">
        <ele>97.71</ele>
        <time>2021-07-26T13:30:47Z</time>
      </trkpt>
      <trkpt lat="49.44341" lon="3.78696">
        <ele>97.71</ele>
        <time>2021-07-26T13:30:48Z</time>
      </trkpt>
      <trkpt lat="49.44391" lon="3.78751">
        <ele>101.56</ele>
        <time>2021-07-26T13:30:58Z</time>
      </trkpt>
      <trkpt lat="49.44395" lon="3.78756">
        <ele>102.52</ele>
        <time>2021-07-26T13:30:59Z</time>
      </trkpt>
      <trkpt lat="49.44395" lon="3.78756">
        <ele>102.52</ele>
        <time>2021-07-26T13:31:00Z</time>
      </trkpt>
      <trkpt lat="49.44398" lon="3.78761">
        <ele>102.04</ele>
        <time>2021-07-26T13:31:01Z</time>
      </trkpt>
      <trkpt lat="49.44399" lon="3.78764">
        <ele>102.04</ele>
        <time>2021-07-26T13:31:02Z</time>
      </trkpt>
      <trkpt lat="49.44401" lon="3.78766">
        <ele>102.04</ele>
        <time>2021-07-26T13:31:03Z</time>
      </trkpt>
      <trkpt lat="49.44401" lon="3.78768">
        <ele>102.04</ele>
        <time>2021-07-26T13:31:22Z</time>
      </trkpt>
      <trkpt lat="49.44401" lon="3.78768">
        <ele>102.04</ele>
        <time>2021-07-26T13:36:42Z</time>
      </trkpt>
      <trkpt lat="49.44406" lon="3.78775">
        <ele>102.04</ele>
        <time>2021-07-26T13:36:47Z</time>
      </trkpt>
      <trkpt lat="49.44407" lon="3.7878">
        <ele>102.52</ele>
        <time>2021-07-26T13:36:48Z</time>
      </trkpt>
      <trkpt lat="49.44425" lon="3.78866">
        <ele>104.92</ele>
        <time>2021-07-26T13:36:57Z</time>
      </trkpt>
      <trkpt lat="49.44454" lon="3.78996">
        <ele>111.17</ele>
        <time>2021-07-26T13:37:09Z</time>
      </trkpt>
      <trkpt lat="49.44475" lon="3.79067">
        <ele>117.42</ele>
        <time>2021-07-26T13:37:19Z</time>
      </trkpt>
      <trkpt lat="49.44485" lon="3.79066">
        <ele>118.38</ele>
        <time>2021-07-26T13:37:26Z</time>
      </trkpt>
      <trkpt lat="49.44502" lon="3.7905">
        <ele>121.26</ele>
        <time>2021-07-26T13:37:36Z</time>
      </trkpt>
      <trkpt lat="49.44515" lon="3.79037">
        <ele>122.22</ele>
        <time>2021-07-26T13:37:38Z</time>
      </trkpt>
      <trkpt lat="49.44515" lon="3.79037">
        <ele>122.71</ele>
        <time>2021-07-26T13:37:39Z</time>
      </trkpt>
      <trkpt lat="49.44518" lon="3.79033">
        <ele>123.19</ele>
        <time>2021-07-26T13:37:40Z</time>
      </trkpt>
      <trkpt lat="49.44522" lon="3.79026">
        <ele>123.67</ele>
        <time>2021-07-26T13:37:41Z</time>
      </trkpt>
      <trkpt lat="49.44525" lon="3.79019">
        <ele>124.15</ele>
        <time>2021-07-26T13:37:42Z</time>
      </trkpt>
      <trkpt lat="49.44532" lon="3.79006">
        <ele>125.11</ele>
        <time>2021-07-26T13:37:44Z</time>
      </trkpt>
      <trkpt lat="49.44535" lon="3.79">
        <ele>125.59</ele>
        <time>2021-07-26T13:37:45Z</time>
      </trkpt>
      <trkpt lat="49.44553" lon="3.78956">
        <ele>126.55</ele>
        <time>2021-07-26T13:37:56Z</time>
      </trkpt>
      <trkpt lat="49.44557" lon="3.78939">
        <ele>128.47</ele>
        <time>2021-07-26T13:38:08Z</time>
      </trkpt>
      <trkpt lat="49.4456" lon="3.78924">
        <ele>130.88</ele>
        <time>2021-07-26T13:38:18Z</time>
      </trkpt>
      <trkpt lat="49.4456" lon="3.78924">
        <ele>130.88</ele>
        <time>2021-07-26T13:48:52Z</time>
      </trkpt>
      <trkpt lat="49.4456" lon="3.78924">
        <ele>131.36</ele>
        <time>2021-07-26T13:48:53Z</time>
      </trkpt>
      <trkpt lat="49.4456" lon="3.78923">
        <ele>131.36</ele>
        <time>2021-07-26T13:48:56Z</time>
      </trkpt>
      <trkpt lat="49.4456" lon="3.78919">
        <ele>131.36</ele>
        <time>2021-07-26T13:48:57Z</time>
      </trkpt>
      <trkpt lat="49.44561" lon="3.78916">
        <ele>131.36</ele>
        <time>2021-07-26T13:48:58Z</time>
      </trkpt>
      <trkpt lat="49.44566" lon="3.78888">
        <ele>131.84</ele>
        <time>2021-07-26T13:49:06Z</time>
      </trkpt>
      <trkpt lat="49.44567" lon="3.78884">
        <ele>131.84</ele>
        <time>2021-07-26T13:49:07Z</time>
      </trkpt>
      <trkpt lat="49.44567" lon="3.78881">
        <ele>131.84</ele>
        <time>2021-07-26T13:49:08Z</time>
      </trkpt>
      <trkpt lat="49.44568" lon="3.78879">
        <ele>132.32</ele>
        <time>2021-07-26T13:49:09Z</time>
      </trkpt>
      <trkpt lat="49.44568" lon="3.78877">
        <ele>132.32</ele>
        <time>2021-07-26T13:49:10Z</time>
      </trkpt>
      <trkpt lat="49.44568" lon="3.78875">
        <ele>132.32</ele>
        <time>2021-07-26T13:49:11Z</time>
      </trkpt>
      <trkpt lat="49.44569" lon="3.78873">
        <ele>133.28</ele>
        <time>2021-07-26T13:49:12Z</time>
      </trkpt>
      <trkpt lat="49.44569" lon="3.7887">
        <ele>133.28</ele>
        <time>2021-07-26T13:49:13Z</time>
      </trkpt>
      <trkpt lat="49.4457" lon="3.78865">
        <ele>133.76</ele>
        <time>2021-07-26T13:49:14Z</time>
      </trkpt>
      <trkpt lat="49.44572" lon="3.78858">
        <ele>134.24</ele>
        <time>2021-07-26T13:49:15Z</time>
      </trkpt>
      <trkpt lat="49.44579" lon="3.78819">
        <ele>135.68</ele>
        <time>2021-07-26T13:49:20Z</time>
      </trkpt>
      <trkpt lat="49.4458" lon="3.7881">
        <ele>136.16</ele>
        <time>2021-07-26T13:49:21Z</time>
      </trkpt>
      <trkpt lat="49.44582" lon="3.78802">
        <ele>136.16</ele>
        <time>2021-07-26T13:49:22Z</time>
      </trkpt>
      <trkpt lat="49.44586" lon="3.78793">
        <ele>136.64</ele>
        <time>2021-07-26T13:49:23Z</time>
      </trkpt>
      <trkpt lat="49.44591" lon="3.78784">
        <ele>137.13</ele>
        <time>2021-07-26T13:49:24Z</time>
      </trkpt>
      <trkpt lat="49.44595" lon="3.78775">
        <ele>137.61</ele>
        <time>2021-07-26T13:49:25Z</time>
      </trkpt>
      <trkpt lat="49.44604" lon="3.78755">
        <ele>138.57</ele>
        <time>2021-07-26T13:49:27Z</time>
      </trkpt>
      <trkpt lat="49.44609" lon="3.78746">
        <ele>138.57</ele>
        <time>2021-07-26T13:49:28Z</time>
      </trkpt>
      <trkpt lat="49.44613" lon="3.78736">
        <ele>139.05</ele>
        <time>2021-07-26T13:49:29Z</time>
      </trkpt>
      <trkpt lat="49.44618" lon="3.78724">
        <ele>139.05</ele>
        <time>2021-07-26T13:49:30Z</time>
      </trkpt>
      <trkpt lat="49.4462" lon="3.78713">
        <ele>140.01</ele>
        <time>2021-07-26T13:49:31Z</time>
      </trkpt>
      <trkpt lat="49.44624" lon="3.78687">
        <ele>141.45</ele>
        <time>2021-07-26T13:49:33Z</time>
      </trkpt>
      <trkpt lat="49.44626" lon="3.78674">
        <ele>141.45</ele>
        <time>2021-07-26T13:49:34Z</time>
      </trkpt>
      <trkpt lat="49.44626" lon="3.78659">
        <ele>141.93</ele>
        <time>2021-07-26T13:49:35Z</time>
      </trkpt>
      <trkpt lat="49.44624" lon="3.78645">
        <ele>142.41</ele>
        <time>2021-07-26T13:49:36Z</time>
      </trkpt>
      <trkpt lat="49.44622" lon="3.78631">
        <ele>142.41</ele>
        <time>2021-07-26T13:49:37Z</time>
      </trkpt>
      <trkpt lat="49.4462" lon="3.78617">
        <ele>142.89</ele>
        <time>2021-07-26T13:49:38Z</time>
      </trkpt>
      <trkpt lat="49.44616" lon="3.78602">
        <ele>143.37</ele>
        <time>2021-07-26T13:49:39Z</time>
      </trkpt>
      <trkpt lat="49.44613" lon="3.78586">
        <ele>143.85</ele>
        <time>2021-07-26T13:49:40Z</time>
      </trkpt>
      <trkpt lat="49.44542" lon="3.78353">
        <ele>153.95</ele>
        <time>2021-07-26T13:49:55Z</time>
      </trkpt>
      <trkpt lat="49.44495" lon="3.78119">
        <ele>165.48</ele>
        <time>2021-07-26T13:50:11Z</time>
      </trkpt>
      <trkpt lat="49.44482" lon="3.78002">
        <ele>170.77</ele>
        <time>2021-07-26T13:50:20Z</time>
      </trkpt>
      <trkpt lat="49.44482" lon="3.77994">
        <ele>171.25</ele>
        <time>2021-07-26T13:50:21Z</time>
      </trkpt>
      <trkpt lat="49.44481" lon="3.77983">
        <ele>170.77</ele>
        <time>2021-07-26T13:50:22Z</time>
      </trkpt>
      <trkpt lat="49.44481" lon="3.77983">
        <ele>171.25</ele>
        <time>2021-07-26T13:50:23Z</time>
      </trkpt>
      <trkpt lat="49.44481" lon="3.7798">
        <ele>171.25</ele>
        <time>2021-07-26T13:50:24Z</time>
      </trkpt>
      <trkpt lat="49.44481" lon="3.77976">
        <ele>171.25</ele>
        <time>2021-07-26T13:50:25Z</time>
      </trkpt>
      <trkpt lat="49.44481" lon="3.77976">
        <ele>171.25</ele>
        <time>2021-07-26T13:50:26Z</time>
      </trkpt>
      <trkpt lat="49.44506" lon="3.77949">
        <ele>171.73</ele>
        <time>2021-07-26T13:50:36Z</time>
      </trkpt>
      <trkpt lat="49.44504" lon="3.77944">
        <ele>171.73</ele>
        <time>2021-07-26T13:50:46Z</time>
      </trkpt>
      <trkpt lat="49.44506" lon="3.77946">
        <ele>171.73</ele>
        <time>2021-07-26T14:01:53Z</time>
      </trkpt>
      <trkpt lat="49.44506" lon="3.77948">
        <ele>171.73</ele>
        <time>2021-07-26T14:08:04Z</time>
      </trkpt>
      <trkpt lat="49.44506" lon="3.77949">
        <ele>171.25</ele>
        <time>2021-07-26T14:14:51Z</time>
      </trkpt>
      <trkpt lat="49.44507" lon="3.77949">
        <ele>170.77</ele>
        <time>2021-07-26T14:23:55Z</time>
      </trkpt>
      <trkpt lat="49.44507" lon="3.77949">
        <ele>170.77</ele>
        <time>2021-07-26T14:28:03Z</time>
      </trkpt>
      <trkpt lat="49.44507" lon="3.77948">
        <ele>171.25</ele>
        <time>2021-07-26T14:30:24Z</time>
      </trkpt>
      <trkpt lat="49.44506" lon="3.77948">
        <ele>170.77</ele>
        <time>2021-07-26T14:33:41Z</time>
      </trkpt>
      <trkpt lat="49.44506" lon="3.77949">
        <ele>170.29</ele>
        <time>2021-07-26T14:37:57Z</time>
      </trkpt>
      <trkpt lat="49.44506" lon="3.77948">
        <ele>170.29</ele>
        <time>2021-07-26T14:41:33Z</time>
      </trkpt>
      <trkpt lat="49.44505" lon="3.77948">
        <ele>170.29</ele>
        <time>2021-07-26T14:45:31Z</time>
      </trkpt>
      <trkpt lat="49.44505" lon="3.77948">
        <ele>169.81</ele>
        <time>2021-07-26T14:50:23Z</time>
      </trkpt>
      <trkpt lat="49.44505" lon="3.77948">
        <ele>169.81</ele>
        <time>2021-07-26T14:55:42Z</time>
      </trkpt>
      <trkpt lat="49.44505" lon="3.77949">
        <ele>169.33</ele>
        <time>2021-07-26T15:00:05Z</time>
      </trkpt>
      <trkpt lat="49.44505" lon="3.7795">
        <ele>169.33</ele>
        <time>2021-07-26T15:03:00Z</time>
      </trkpt>
      <trkpt lat="49.44505" lon="3.77951">
        <ele>168.85</ele>
        <time>2021-07-26T15:07:52Z</time>
      </trkpt>
      <trkpt lat="49.44505" lon="3.77951">
        <ele>167.89</ele>
        <time>2021-07-26T15:12:13Z</time>
      </trkpt>
      <trkpt lat="49.44506" lon="3.7795">
        <ele>167.89</ele>
        <time>2021-07-26T15:21:19Z</time>
      </trkpt>
      <trkpt lat="49.44506" lon="3.7795">
        <ele>168.37</ele>
        <time>2021-07-26T15:30:32Z</time>
      </trkpt>
      <trkpt lat="49.44505" lon="3.7795">
        <ele>168.37</ele>
        <time>2021-07-26T15:33:42Z</time>
      </trkpt>
      <trkpt lat="49.44505" lon="3.77948">
        <ele>168.85</ele>
        <time>2021-07-26T15:40:26Z</time>
      </trkpt>
      <trkpt lat="49.44505" lon="3.77946">
        <ele>168.85</ele>
        <time>2021-07-26T15:44:52Z</time>
      </trkpt>
      <trkpt lat="49.44505" lon="3.77946">
        <ele>168.85</ele>
        <time>2021-07-26T15:49:00Z</time>
      </trkpt>
      <trkpt lat="49.44506" lon="3.77948">
        <ele>168.85</ele>
        <time>2021-07-26T15:52:59Z</time>
      </trkpt>
      <trkpt lat="49.44506" lon="3.77948">
        <ele>168.85</ele>
        <time>2021-07-26T15:54:47Z</time>
      </trkpt>
      <trkpt lat="49.44479" lon="3.77944">
        <ele>169.33</ele>
        <time>2021-07-26T15:55:32Z</time>
      </trkpt>
      <trkpt lat="49.44478" lon="3.77911">
        <ele>171.25</ele>
        <time>2021-07-26T15:55:42Z</time>
      </trkpt>
      <trkpt lat="49.44477" lon="3.77905">
        <ele>171.73</ele>
        <time>2021-07-26T15:55:43Z</time>
      </trkpt>
      <trkpt lat="49.44472" lon="3.77807">
        <ele>173.17</ele>
        <time>2021-07-26T15:55:55Z</time>
      </trkpt>
      <trkpt lat="49.44465" lon="3.7768">
        <ele>177.02</ele>
        <time>2021-07-26T15:56:07Z</time>
      </trkpt>
      <trkpt lat="49.4446" lon="3.77599">
        <ele>177.5</ele>
        <time>2021-07-26T15:56:20Z</time>
      </trkpt>
      <trkpt lat="49.44452" lon="3.77495">
        <ele>177.5</ele>
        <time>2021-07-26T15:56:32Z</time>
      </trkpt>
      <trkpt lat="49.44434" lon="3.77342">
        <ele>181.83</ele>
        <time>2021-07-26T15:56:48Z</time>
      </trkpt>
      <trkpt lat="49.44384" lon="3.77169">
        <ele>181.83</ele>
        <time>2021-07-26T15:57:03Z</time>
      </trkpt>
      <trkpt lat="49.44317" lon="3.76985">
        <ele>181.35</ele>
        <time>2021-07-26T15:57:17Z</time>
      </trkpt>
      <trkpt lat="49.44244" lon="3.76873">
        <ele>180.38</ele>
        <time>2021-07-26T15:57:27Z</time>
      </trkpt>
      <trkpt lat="49.44161" lon="3.76717">
        <ele>183.75</ele>
        <time>2021-07-26T15:57:38Z</time>
      </trkpt>
      <trkpt lat="49.44092" lon="3.76515">
        <ele>187.59</ele>
        <time>2021-07-26T15:57:52Z</time>
      </trkpt>
      <trkpt lat="49.4407" lon="3.7645">
        <ele>188.08</ele>
        <time>2021-07-26T15:58:00Z</time>
      </trkpt>
      <trkpt lat="49.44037" lon="3.76453">
        <ele>188.56</ele>
        <time>2021-07-26T15:58:09Z</time>
      </trkpt>
      <trkpt lat="49.43991" lon="3.76456">
        <ele>189.04</ele>
        <time>2021-07-26T15:58:26Z</time>
      </trkpt>
      <trkpt lat="49.43988" lon="3.76463">
        <ele>189.52</ele>
        <time>2021-07-26T15:58:30Z</time>
      </trkpt>
      <trkpt lat="49.43989" lon="3.76466">
        <ele>189.52</ele>
        <time>2021-07-26T15:58:51Z</time>
      </trkpt>
      <trkpt lat="49.44" lon="3.76461">
        <ele>189.04</ele>
        <time>2021-07-26T16:00:44Z</time>
      </trkpt>
      <trkpt lat="49.44052" lon="3.76453">
        <ele>187.11</ele>
        <time>2021-07-26T16:01:01Z</time>
      </trkpt>
      <trkpt lat="49.44066" lon="3.7644">
        <ele>186.63</ele>
        <time>2021-07-26T16:01:08Z</time>
      </trkpt>
      <trkpt lat="49.44065" lon="3.76436">
        <ele>186.63</ele>
        <time>2021-07-26T16:01:09Z</time>
      </trkpt>
      <trkpt lat="49.44063" lon="3.76431">
        <ele>186.15</ele>
        <time>2021-07-26T16:01:10Z</time>
      </trkpt>
      <trkpt lat="49.44032" lon="3.76341">
        <ele>184.71</ele>
        <time>2021-07-26T16:01:19Z</time>
      </trkpt>
      <trkpt lat="49.43965" lon="3.76126">
        <ele>181.83</ele>
        <time>2021-07-26T16:01:31Z</time>
      </trkpt>
      <trkpt lat="49.43934" lon="3.75916">
        <ele>179.9</ele>
        <time>2021-07-26T16:01:41Z</time>
      </trkpt>
      <trkpt lat="49.43895" lon="3.75608">
        <ele>183.27</ele>
        <time>2021-07-26T16:01:55Z</time>
      </trkpt>
      <trkpt lat="49.43824" lon="3.75218">
        <ele>185.67</ele>
        <time>2021-07-26T16:02:13Z</time>
      </trkpt>
      <trkpt lat="49.43788" lon="3.74965">
        <ele>187.59</ele>
        <time>2021-07-26T16:02:26Z</time>
      </trkpt>
      <trkpt lat="49.43787" lon="3.74882">
        <ele>188.08</ele>
        <time>2021-07-26T16:02:33Z</time>
      </trkpt>
      <trkpt lat="49.43792" lon="3.74774">
        <ele>188.08</ele>
        <time>2021-07-26T16:02:43Z</time>
      </trkpt>
      <trkpt lat="49.43811" lon="3.74579">
        <ele>186.15</ele>
        <time>2021-07-26T16:02:54Z</time>
      </trkpt>
      <trkpt lat="49.43823" lon="3.74373">
        <ele>182.31</ele>
        <time>2021-07-26T16:03:06Z</time>
      </trkpt>
      <trkpt lat="49.43823" lon="3.74361">
        <ele>182.31</ele>
        <time>2021-07-26T16:03:07Z</time>
      </trkpt>
      <trkpt lat="49.43822" lon="3.74349">
        <ele>181.83</ele>
        <time>2021-07-26T16:03:08Z</time>
      </trkpt>
      <trkpt lat="49.43822" lon="3.74338">
        <ele>181.35</ele>
        <time>2021-07-26T16:03:09Z</time>
      </trkpt>
      <trkpt lat="49.4382" lon="3.74329">
        <ele>180.87</ele>
        <time>2021-07-26T16:03:10Z</time>
      </trkpt>
      <trkpt lat="49.43818" lon="3.74321">
        <ele>180.38</ele>
        <time>2021-07-26T16:03:11Z</time>
      </trkpt>
      <trkpt lat="49.43816" lon="3.74312">
        <ele>180.87</ele>
        <time>2021-07-26T16:03:12Z</time>
      </trkpt>
      <trkpt lat="49.43798" lon="3.74284">
        <ele>179.9</ele>
        <time>2021-07-26T16:03:20Z</time>
      </trkpt>
      <trkpt lat="49.43799" lon="3.74276">
        <ele>179.9</ele>
        <time>2021-07-26T16:03:21Z</time>
      </trkpt>
      <trkpt lat="49.438" lon="3.74273">
        <ele>179.9</ele>
        <time>2021-07-26T16:03:22Z</time>
      </trkpt>
      <trkpt lat="49.43802" lon="3.74268">
        <ele>179.9</ele>
        <time>2021-07-26T16:03:23Z</time>
      </trkpt>
      <trkpt lat="49.43805" lon="3.74262">
        <ele>179.9</ele>
        <time>2021-07-26T16:03:24Z</time>
      </trkpt>
      <trkpt lat="49.43847" lon="3.74169">
        <ele>176.06</ele>
        <time>2021-07-26T16:03:33Z</time>
      </trkpt>
      <trkpt lat="49.43947" lon="3.73983">
        <ele>169.33</ele>
        <time>2021-07-26T16:03:46Z</time>
      </trkpt>
      <trkpt lat="49.44045" lon="3.73843">
        <ele>170.29</ele>
        <time>2021-07-26T16:03:57Z</time>
      </trkpt>
      <trkpt lat="49.44071" lon="3.73807">
        <ele>170.77</ele>
        <time>2021-07-26T16:04:01Z</time>
      </trkpt>
      <trkpt lat="49.44078" lon="3.73797">
        <ele>171.25</ele>
        <time>2021-07-26T16:04:02Z</time>
      </trkpt>
      <trkpt lat="49.44078" lon="3.73797">
        <ele>170.77</ele>
        <time>2021-07-26T16:04:03Z</time>
      </trkpt>
      <trkpt lat="49.44091" lon="3.73793">
        <ele>170.77</ele>
        <time>2021-07-26T16:04:04Z</time>
      </trkpt>
      <trkpt lat="49.44095" lon="3.73798">
        <ele>170.29</ele>
        <time>2021-07-26T16:04:05Z</time>
      </trkpt>
      <trkpt lat="49.44099" lon="3.73803">
        <ele>169.81</ele>
        <time>2021-07-26T16:04:06Z</time>
      </trkpt>
      <trkpt lat="49.4412" lon="3.73816">
        <ele>168.37</ele>
        <time>2021-07-26T16:04:12Z</time>
      </trkpt>
      <trkpt lat="49.44144" lon="3.7383">
        <ele>166.93</ele>
        <time>2021-07-26T16:04:41Z</time>
      </trkpt>
      <trkpt lat="49.44156" lon="3.73837">
        <ele>165.48</ele>
        <time>2021-07-26T16:04:43Z</time>
      </trkpt>
      <trkpt lat="49.44164" lon="3.73841">
        <ele>165.48</ele>
        <time>2021-07-26T16:04:44Z</time>
      </trkpt>
      <trkpt lat="49.44171" lon="3.73845">
        <ele>165</ele>
        <time>2021-07-26T16:04:45Z</time>
      </trkpt>
      <trkpt lat="49.44265" lon="3.7384">
        <ele>159.24</ele>
        <time>2021-07-26T16:04:56Z</time>
      </trkpt>
      <trkpt lat="49.44278" lon="3.73832">
        <ele>158.27</ele>
        <time>2021-07-26T16:04:58Z</time>
      </trkpt>
      <trkpt lat="49.44334" lon="3.73798">
        <ele>153.47</ele>
        <time>2021-07-26T16:05:06Z</time>
      </trkpt>
      <trkpt lat="49.44344" lon="3.73795">
        <ele>152.99</ele>
        <time>2021-07-26T16:05:07Z</time>
      </trkpt>
      <trkpt lat="49.44354" lon="3.73793">
        <ele>152.03</ele>
        <time>2021-07-26T16:05:08Z</time>
      </trkpt>
      <trkpt lat="49.44364" lon="3.73794">
        <ele>151.06</ele>
        <time>2021-07-26T16:05:09Z</time>
      </trkpt>
      <trkpt lat="49.44374" lon="3.73795">
        <ele>150.58</ele>
        <time>2021-07-26T16:05:10Z</time>
      </trkpt>
      <trkpt lat="49.44413" lon="3.73799">
        <ele>147.22</ele>
        <time>2021-07-26T16:05:14Z</time>
      </trkpt>
      <trkpt lat="49.44518" lon="3.73785">
        <ele>137.13</ele>
        <time>2021-07-26T16:05:23Z</time>
      </trkpt>
      <trkpt lat="49.44528" lon="3.73789">
        <ele>136.16</ele>
        <time>2021-07-26T16:05:24Z</time>
      </trkpt>
      <trkpt lat="49.44538" lon="3.73793">
        <ele>135.2</ele>
        <time>2021-07-26T16:05:25Z</time>
      </trkpt>
      <trkpt lat="49.44588" lon="3.73812">
        <ele>130.4</ele>
        <time>2021-07-26T16:05:30Z</time>
      </trkpt>
      <trkpt lat="49.44597" lon="3.73816">
        <ele>128.47</ele>
        <time>2021-07-26T16:05:31Z</time>
      </trkpt>
      <trkpt lat="49.44605" lon="3.73816">
        <ele>126.07</ele>
        <time>2021-07-26T16:05:32Z</time>
      </trkpt>
      <trkpt lat="49.44616" lon="3.73815">
        <ele>125.11</ele>
        <time>2021-07-26T16:05:33Z</time>
      </trkpt>
      <trkpt lat="49.44626" lon="3.73814">
        <ele>124.63</ele>
        <time>2021-07-26T16:05:34Z</time>
      </trkpt>
      <trkpt lat="49.44649" lon="3.73812">
        <ele>122.22</ele>
        <time>2021-07-26T16:05:36Z</time>
      </trkpt>
      <trkpt lat="49.4466" lon="3.73811">
        <ele>121.26</ele>
        <time>2021-07-26T16:05:37Z</time>
      </trkpt>
      <trkpt lat="49.44671" lon="3.7381">
        <ele>119.82</ele>
        <time>2021-07-26T16:05:38Z</time>
      </trkpt>
      <trkpt lat="49.44726" lon="3.73828">
        <ele>114.05</ele>
        <time>2021-07-26T16:05:43Z</time>
      </trkpt>
      <trkpt lat="49.44732" lon="3.73833">
        <ele>113.57</ele>
        <time>2021-07-26T16:05:44Z</time>
      </trkpt>
      <trkpt lat="49.44739" lon="3.73837">
        <ele>113.09</ele>
        <time>2021-07-26T16:05:45Z</time>
      </trkpt>
      <trkpt lat="49.44745" lon="3.73845">
        <ele>113.09</ele>
        <time>2021-07-26T16:05:46Z</time>
      </trkpt>
      <trkpt lat="49.44757" lon="3.73864">
        <ele>113.09</ele>
        <time>2021-07-26T16:05:47Z</time>
      </trkpt>
      <trkpt lat="49.44762" lon="3.73877">
        <ele>112.61</ele>
        <time>2021-07-26T16:05:48Z</time>
      </trkpt>
      <trkpt lat="49.44762" lon="3.73877">
        <ele>112.61</ele>
        <time>2021-07-26T16:05:49Z</time>
      </trkpt>
      <trkpt lat="49.44765" lon="3.73891">
        <ele>112.13</ele>
        <time>2021-07-26T16:05:50Z</time>
      </trkpt>
      <trkpt lat="49.44769" lon="3.73905">
        <ele>110.69</ele>
        <time>2021-07-26T16:05:51Z</time>
      </trkpt>
      <trkpt lat="49.44772" lon="3.73919">
        <ele>110.21</ele>
        <time>2021-07-26T16:05:52Z</time>
      </trkpt>
      <trkpt lat="49.44777" lon="3.73954">
        <ele>107.81</ele>
        <time>2021-07-26T16:05:54Z</time>
      </trkpt>
      <trkpt lat="49.44777" lon="3.74165">
        <ele>97.71</ele>
        <time>2021-07-26T16:06:05Z</time>
      </trkpt>
      <trkpt lat="49.44781" lon="3.74244">
        <ele>94.35</ele>
        <time>2021-07-26T16:06:09Z</time>
      </trkpt>
      <trkpt lat="49.44785" lon="3.74264">
        <ele>92.9</ele>
        <time>2021-07-26T16:06:10Z</time>
      </trkpt>
      <trkpt lat="49.44808" lon="3.74343">
        <ele>86.18</ele>
        <time>2021-07-26T16:06:14Z</time>
      </trkpt>
      <trkpt lat="49.44815" lon="3.74362">
        <ele>84.73</ele>
        <time>2021-07-26T16:06:15Z</time>
      </trkpt>
      <trkpt lat="49.4484" lon="3.74417">
        <ele>82.81</ele>
        <time>2021-07-26T16:06:18Z</time>
      </trkpt>
      <trkpt lat="49.44877" lon="3.74487">
        <ele>81.85</ele>
        <time>2021-07-26T16:06:22Z</time>
      </trkpt>
      <trkpt lat="49.44893" lon="3.74509">
        <ele>82.33</ele>
        <time>2021-07-26T16:06:24Z</time>
      </trkpt>
      <trkpt lat="49.44914" lon="3.74522">
        <ele>82.81</ele>
        <time>2021-07-26T16:06:25Z</time>
      </trkpt>
      <trkpt lat="49.44914" lon="3.74522">
        <ele>83.29</ele>
        <time>2021-07-26T16:06:26Z</time>
      </trkpt>
      <trkpt lat="49.44936" lon="3.74529">
        <ele>82.33</ele>
        <time>2021-07-26T16:06:27Z</time>
      </trkpt>
      <trkpt lat="49.44936" lon="3.74529">
        <ele>80.89</ele>
        <time>2021-07-26T16:06:28Z</time>
      </trkpt>
      <trkpt lat="49.4495" lon="3.74529">
        <ele>80.41</ele>
        <time>2021-07-26T16:06:29Z</time>
      </trkpt>
      <trkpt lat="49.44962" lon="3.74525">
        <ele>79.93</ele>
        <time>2021-07-26T16:06:30Z</time>
      </trkpt>
      <trkpt lat="49.44973" lon="3.74518">
        <ele>78.97</ele>
        <time>2021-07-26T16:06:31Z</time>
      </trkpt>
      <trkpt lat="49.44986" lon="3.7451">
        <ele>78.48</ele>
        <time>2021-07-26T16:06:32Z</time>
      </trkpt>
      <trkpt lat="49.44997" lon="3.74501">
        <ele>78</ele>
        <time>2021-07-26T16:06:33Z</time>
      </trkpt>
      <trkpt lat="49.45063" lon="3.74416">
        <ele>77.52</ele>
        <time>2021-07-26T16:06:41Z</time>
      </trkpt>
      <trkpt lat="49.4513" lon="3.74325">
        <ele>78.97</ele>
        <time>2021-07-26T16:06:52Z</time>
      </trkpt>
      <trkpt lat="49.45137" lon="3.74317">
        <ele>79.45</ele>
        <time>2021-07-26T16:06:53Z</time>
      </trkpt>
      <trkpt lat="49.45144" lon="3.74312">
        <ele>79.93</ele>
        <time>2021-07-26T16:06:54Z</time>
      </trkpt>
      <trkpt lat="49.45152" lon="3.74307">
        <ele>79.93</ele>
        <time>2021-07-26T16:06:55Z</time>
      </trkpt>
      <trkpt lat="49.4516" lon="3.74301">
        <ele>79.93</ele>
        <time>2021-07-26T16:06:56Z</time>
      </trkpt>
      <trkpt lat="49.45169" lon="3.74299">
        <ele>80.41</ele>
        <time>2021-07-26T16:06:57Z</time>
      </trkpt>
      <trkpt lat="49.45179" lon="3.74301">
        <ele>80.89</ele>
        <time>2021-07-26T16:06:58Z</time>
      </trkpt>
      <trkpt lat="49.45188" lon="3.74304">
        <ele>80.89</ele>
        <time>2021-07-26T16:06:59Z</time>
      </trkpt>
      <trkpt lat="49.4532" lon="3.74352">
        <ele>82.81</ele>
        <time>2021-07-26T16:07:14Z</time>
      </trkpt>
      <trkpt lat="49.45338" lon="3.74359">
        <ele>83.29</ele>
        <time>2021-07-26T16:07:21Z</time>
      </trkpt>
      <trkpt lat="49.45338" lon="3.74359">
        <ele>83.29</ele>
        <time>2021-07-26T16:07:29Z</time>
      </trkpt>
      <trkpt lat="49.45341" lon="3.7436">
        <ele>83.29</ele>
        <time>2021-07-26T16:07:30Z</time>
      </trkpt>
      <trkpt lat="49.45342" lon="3.7436">
        <ele>83.29</ele>
        <time>2021-07-26T16:07:47Z</time>
      </trkpt>
      <trkpt lat="49.45342" lon="3.7436">
        <ele>83.29</ele>
        <time>2021-07-26T16:12:46Z</time>
      </trkpt>
      <trkpt lat="49.45349" lon="3.74362">
        <ele>82.81</ele>
        <time>2021-07-26T16:19:33Z</time>
      </trkpt>
      <trkpt lat="49.45401" lon="3.74374">
        <ele>81.37</ele>
        <time>2021-07-26T16:19:44Z</time>
      </trkpt>
      <trkpt lat="49.45502" lon="3.74397">
        <ele>80.89</ele>
        <time>2021-07-26T16:19:58Z</time>
      </trkpt>
      <trkpt lat="49.45564" lon="3.7441">
        <ele>83.29</ele>
        <time>2021-07-26T16:20:10Z</time>
      </trkpt>
      <trkpt lat="49.4558" lon="3.74414">
        <ele>84.73</ele>
        <time>2021-07-26T16:20:16Z</time>
      </trkpt>
      <trkpt lat="49.45582" lon="3.74414">
        <ele>85.21</ele>
        <time>2021-07-26T16:20:17Z</time>
      </trkpt>
      <trkpt lat="49.45583" lon="3.74415">
        <ele>84.73</ele>
        <time>2021-07-26T16:20:18Z</time>
      </trkpt>
      <trkpt lat="49.45585" lon="3.74405">
        <ele>85.21</ele>
        <time>2021-07-26T16:20:19Z</time>
      </trkpt>
      <trkpt lat="49.45584" lon="3.74403">
        <ele>85.69</ele>
        <time>2021-07-26T16:20:20Z</time>
      </trkpt>
      <trkpt lat="49.45582" lon="3.74401">
        <ele>85.69</ele>
        <time>2021-07-26T16:20:21Z</time>
      </trkpt>
      <trkpt lat="49.45581" lon="3.74399">
        <ele>86.18</ele>
        <time>2021-07-26T16:20:22Z</time>
      </trkpt>
      <trkpt lat="49.4558" lon="3.74398">
        <ele>86.18</ele>
        <time>2021-07-26T16:20:23Z</time>
      </trkpt>
      <trkpt lat="49.45579" lon="3.74397">
        <ele>86.66</ele>
        <time>2021-07-26T16:20:38Z</time>
      </trkpt>
      <trkpt lat="49.45579" lon="3.74397">
        <ele>86.66</ele>
        <time>2021-07-26T16:20:40Z</time>
      </trkpt>
      <trkpt lat="49.45579" lon="3.74397">
        <ele>86.66</ele>
        <time>2021-07-26T16:20:41Z</time>
      </trkpt>
      <trkpt lat="49.45572" lon="3.74412">
        <ele>86.18</ele>
        <time>2021-07-26T16:20:42Z</time>
      </trkpt>
      <trkpt lat="49.45557" lon="3.74409">
        <ele>85.21</ele>
        <time>2021-07-26T16:20:47Z</time>
      </trkpt>
      <trkpt lat="49.45489" lon="3.74394">
        <ele>80.89</ele>
        <time>2021-07-26T16:20:57Z</time>
      </trkpt>
      <trkpt lat="49.45332" lon="3.74358">
        <ele>85.69</ele>
        <time>2021-07-26T16:21:13Z</time>
      </trkpt>
      <trkpt lat="49.45237" lon="3.74315">
        <ele>84.25</ele>
        <time>2021-07-26T16:21:25Z</time>
      </trkpt>
      <trkpt lat="49.45175" lon="3.743">
        <ele>85.69</ele>
        <time>2021-07-26T16:21:33Z</time>
      </trkpt>
      <trkpt lat="49.45167" lon="3.74299">
        <ele>85.69</ele>
        <time>2021-07-26T16:21:34Z</time>
      </trkpt>
      <trkpt lat="49.45159" lon="3.74302">
        <ele>85.69</ele>
        <time>2021-07-26T16:21:35Z</time>
      </trkpt>
      <trkpt lat="49.45151" lon="3.74308">
        <ele>86.18</ele>
        <time>2021-07-26T16:21:36Z</time>
      </trkpt>
      <trkpt lat="49.45143" lon="3.74313">
        <ele>86.66</ele>
        <time>2021-07-26T16:21:37Z</time>
      </trkpt>
      <trkpt lat="49.45134" lon="3.7432">
        <ele>85.21</ele>
        <time>2021-07-26T16:21:38Z</time>
      </trkpt>
      <trkpt lat="49.45127" lon="3.74329">
        <ele>84.73</ele>
        <time>2021-07-26T16:21:39Z</time>
      </trkpt>
      <trkpt lat="49.45023" lon="3.74471">
        <ele>85.69</ele>
        <time>2021-07-26T16:21:52Z</time>
      </trkpt>
      <trkpt lat="49.44995" lon="3.74503">
        <ele>88.58</ele>
        <time>2021-07-26T16:21:55Z</time>
      </trkpt>
      <trkpt lat="49.44984" lon="3.74511">
        <ele>89.54</ele>
        <time>2021-07-26T16:21:56Z</time>
      </trkpt>
      <trkpt lat="49.44973" lon="3.74518">
        <ele>90.5</ele>
        <time>2021-07-26T16:21:57Z</time>
      </trkpt>
      <trkpt lat="49.44951" lon="3.74529">
        <ele>89.54</ele>
        <time>2021-07-26T16:21:59Z</time>
      </trkpt>
      <trkpt lat="49.4494" lon="3.74529">
        <ele>90.98</ele>
        <time>2021-07-26T16:22:00Z</time>
      </trkpt>
      <trkpt lat="49.44914" lon="3.74522">
        <ele>91.94</ele>
        <time>2021-07-26T16:22:01Z</time>
      </trkpt>
      <trkpt lat="49.44914" lon="3.74522">
        <ele>92.9</ele>
        <time>2021-07-26T16:22:02Z</time>
      </trkpt>
      <trkpt lat="49.44901" lon="3.74514">
        <ele>93.39</ele>
        <time>2021-07-26T16:22:03Z</time>
      </trkpt>
      <trkpt lat="49.44889" lon="3.74504">
        <ele>93.87</ele>
        <time>2021-07-26T16:22:04Z</time>
      </trkpt>
      <trkpt lat="49.44879" lon="3.7449">
        <ele>94.35</ele>
        <time>2021-07-26T16:22:05Z</time>
      </trkpt>
      <trkpt lat="49.44869" lon="3.74476">
        <ele>94.83</ele>
        <time>2021-07-26T16:22:06Z</time>
      </trkpt>
      <trkpt lat="49.44861" lon="3.74459">
        <ele>95.79</ele>
        <time>2021-07-26T16:22:07Z</time>
      </trkpt>
      <trkpt lat="49.44788" lon="3.74277">
        <ele>105.4</ele>
        <time>2021-07-26T16:22:17Z</time>
      </trkpt>
      <trkpt lat="49.44778" lon="3.74109">
        <ele>114.53</ele>
        <time>2021-07-26T16:22:25Z</time>
      </trkpt>
      <trkpt lat="49.44775" lon="3.73928">
        <ele>124.15</ele>
        <time>2021-07-26T16:22:33Z</time>
      </trkpt>
      <trkpt lat="49.44769" lon="3.73907">
        <ele>125.11</ele>
        <time>2021-07-26T16:22:34Z</time>
      </trkpt>
      <trkpt lat="49.44764" lon="3.73886">
        <ele>126.07</ele>
        <time>2021-07-26T16:22:35Z</time>
      </trkpt>
      <trkpt lat="49.44751" lon="3.73854">
        <ele>126.55</ele>
        <time>2021-07-26T16:22:36Z</time>
      </trkpt>
      <trkpt lat="49.44751" lon="3.73854">
        <ele>127.99</ele>
        <time>2021-07-26T16:22:37Z</time>
      </trkpt>
      <trkpt lat="49.44741" lon="3.73839">
        <ele>129.43</ele>
        <time>2021-07-26T16:22:38Z</time>
      </trkpt>
      <trkpt lat="49.4473" lon="3.73831">
        <ele>131.36</ele>
        <time>2021-07-26T16:22:39Z</time>
      </trkpt>
      <trkpt lat="49.44717" lon="3.73823">
        <ele>130.88</ele>
        <time>2021-07-26T16:22:40Z</time>
      </trkpt>
      <trkpt lat="49.44704" lon="3.73817">
        <ele>131.36</ele>
        <time>2021-07-26T16:22:41Z</time>
      </trkpt>
      <trkpt lat="49.44691" lon="3.73814">
        <ele>132.32</ele>
        <time>2021-07-26T16:22:42Z</time>
      </trkpt>
      <trkpt lat="49.44663" lon="3.7381">
        <ele>132.8</ele>
        <time>2021-07-26T16:22:44Z</time>
      </trkpt>
      <trkpt lat="49.44649" lon="3.73812">
        <ele>135.2</ele>
        <time>2021-07-26T16:22:45Z</time>
      </trkpt>
      <trkpt lat="49.4461" lon="3.73815">
        <ele>138.09</ele>
        <time>2021-07-26T16:22:48Z</time>
      </trkpt>
      <trkpt lat="49.44598" lon="3.73816">
        <ele>139.53</ele>
        <time>2021-07-26T16:22:49Z</time>
      </trkpt>
      <trkpt lat="49.44585" lon="3.73811">
        <ele>141.45</ele>
        <time>2021-07-26T16:22:50Z</time>
      </trkpt>
      <trkpt lat="49.44572" lon="3.73806">
        <ele>142.89</ele>
        <time>2021-07-26T16:22:51Z</time>
      </trkpt>
      <trkpt lat="49.44561" lon="3.73802">
        <ele>144.34</ele>
        <time>2021-07-26T16:22:52Z</time>
      </trkpt>
      <trkpt lat="49.44538" lon="3.73793">
        <ele>147.22</ele>
        <time>2021-07-26T16:22:54Z</time>
      </trkpt>
      <trkpt lat="49.44526" lon="3.73788">
        <ele>147.7</ele>
        <time>2021-07-26T16:22:55Z</time>
      </trkpt>
      <trkpt lat="49.44516" lon="3.73784">
        <ele>148.18</ele>
        <time>2021-07-26T16:22:56Z</time>
      </trkpt>
      <trkpt lat="49.44504" lon="3.73786">
        <ele>148.66</ele>
        <time>2021-07-26T16:22:57Z</time>
      </trkpt>
      <trkpt lat="49.44492" lon="3.73788">
        <ele>150.1</ele>
        <time>2021-07-26T16:22:58Z</time>
      </trkpt>
      <trkpt lat="49.44479" lon="3.7379">
        <ele>152.03</ele>
        <time>2021-07-26T16:22:59Z</time>
      </trkpt>
      <trkpt lat="49.44411" lon="3.73799">
        <ele>156.83</ele>
        <time>2021-07-26T16:23:04Z</time>
      </trkpt>
      <trkpt lat="49.44397" lon="3.73797">
        <ele>157.79</ele>
        <time>2021-07-26T16:23:05Z</time>
      </trkpt>
      <trkpt lat="49.44357" lon="3.73793">
        <ele>161.64</ele>
        <time>2021-07-26T16:23:08Z</time>
      </trkpt>
      <trkpt lat="49.44345" lon="3.73795">
        <ele>163.08</ele>
        <time>2021-07-26T16:23:09Z</time>
      </trkpt>
      <trkpt lat="49.44333" lon="3.73798">
        <ele>164.52</ele>
        <time>2021-07-26T16:23:10Z</time>
      </trkpt>
      <trkpt lat="49.44322" lon="3.73803">
        <ele>165.48</ele>
        <time>2021-07-26T16:23:11Z</time>
      </trkpt>
      <trkpt lat="49.44309" lon="3.73812">
        <ele>166.45</ele>
        <time>2021-07-26T16:23:12Z</time>
      </trkpt>
      <trkpt lat="49.44247" lon="3.73845">
        <ele>170.29</ele>
        <time>2021-07-26T16:23:17Z</time>
      </trkpt>
      <trkpt lat="49.44234" lon="3.73848">
        <ele>171.73</ele>
        <time>2021-07-26T16:23:18Z</time>
      </trkpt>
      <trkpt lat="49.44222" lon="3.73848">
        <ele>172.21</ele>
        <time>2021-07-26T16:23:19Z</time>
      </trkpt>
      <trkpt lat="49.44182" lon="3.73847">
        <ele>172.21</ele>
        <time>2021-07-26T16:23:22Z</time>
      </trkpt>
      <trkpt lat="49.44172" lon="3.73845">
        <ele>171.73</ele>
        <time>2021-07-26T16:23:23Z</time>
      </trkpt>
      <trkpt lat="49.44162" lon="3.7384">
        <ele>172.21</ele>
        <time>2021-07-26T16:23:24Z</time>
      </trkpt>
      <trkpt lat="49.44153" lon="3.73834">
        <ele>172.69</ele>
        <time>2021-07-26T16:23:25Z</time>
      </trkpt>
      <trkpt lat="49.44143" lon="3.73829">
        <ele>174.62</ele>
        <time>2021-07-26T16:23:26Z</time>
      </trkpt>
      <trkpt lat="49.44088" lon="3.73789">
        <ele>177.5</ele>
        <time>2021-07-26T16:23:34Z</time>
      </trkpt>
      <trkpt lat="49.44088" lon="3.73789">
        <ele>176.54</ele>
        <time>2021-07-26T16:23:38Z</time>
      </trkpt>
      <trkpt lat="49.44086" lon="3.73786">
        <ele>176.06</ele>
        <time>2021-07-26T16:23:39Z</time>
      </trkpt>
      <trkpt lat="49.44087" lon="3.73783">
        <ele>176.06</ele>
        <time>2021-07-26T16:23:40Z</time>
      </trkpt>
      <trkpt lat="49.4409" lon="3.73778">
        <ele>176.06</ele>
        <time>2021-07-26T16:23:41Z</time>
      </trkpt>
      <trkpt lat="49.44093" lon="3.73771">
        <ele>176.06</ele>
        <time>2021-07-26T16:23:42Z</time>
      </trkpt>
      <trkpt lat="49.44111" lon="3.73728">
        <ele>176.54</ele>
        <time>2021-07-26T16:23:47Z</time>
      </trkpt>
      <trkpt lat="49.44113" lon="3.73714">
        <ele>177.5</ele>
        <time>2021-07-26T16:23:48Z</time>
      </trkpt>
      <trkpt lat="49.44155" lon="3.73494">
        <ele>180.38</ele>
        <time>2021-07-26T16:24:01Z</time>
      </trkpt>
      <trkpt lat="49.4418" lon="3.73343">
        <ele>183.75</ele>
        <time>2021-07-26T16:24:11Z</time>
      </trkpt>
      <trkpt lat="49.44183" lon="3.73323">
        <ele>184.71</ele>
        <time>2021-07-26T16:24:13Z</time>
      </trkpt>
      <trkpt lat="49.44184" lon="3.73316">
        <ele>184.71</ele>
        <time>2021-07-26T16:24:14Z</time>
      </trkpt>
      <trkpt lat="49.44185" lon="3.7331">
        <ele>185.19</ele>
        <time>2021-07-26T16:24:15Z</time>
      </trkpt>
      <trkpt lat="49.44192" lon="3.73264">
        <ele>185.67</ele>
        <time>2021-07-26T16:24:27Z</time>
      </trkpt>
      <trkpt lat="49.44192" lon="3.73264">
        <ele>185.19</ele>
        <time>2021-07-26T16:31:26Z</time>
      </trkpt>
      <trkpt lat="49.44192" lon="3.73264">
        <ele>184.23</ele>
        <time>2021-07-26T16:36:52Z</time>
      </trkpt>
      <trkpt lat="49.44192" lon="3.73264">
        <ele>184.23</ele>
        <time>2021-07-26T16:43:26Z</time>
      </trkpt>
      <trkpt lat="49.44192" lon="3.73264">
        <ele>184.71</ele>
        <time>2021-07-26T16:46:39Z</time>
      </trkpt>
      <trkpt lat="49.44192" lon="3.73264">
        <ele>185.19</ele>
        <time>2021-07-26T17:00:53Z</time>
      </trkpt>
      <trkpt lat="49.44192" lon="3.73264">
        <ele>184.71</ele>
        <time>2021-07-26T17:05:41Z</time>
      </trkpt>
      <trkpt lat="49.44192" lon="3.73264">
        <ele>184.23</ele>
        <time>2021-07-26T17:11:45Z</time>
      </trkpt>
      <trkpt lat="49.44192" lon="3.73264">
        <ele>184.23</ele>
        <time>2021-07-26T17:14:11Z</time>
      </trkpt>
      <trkpt lat="49.44192" lon="3.73264">
        <ele>184.71</ele>
        <time>2021-07-26T17:29:31Z</time>
      </trkpt>
      <trkpt lat="49.44192" lon="3.73264">
        <ele>185.67</ele>
        <time>2021-07-26T17:42:12Z</time>
      </trkpt>
      <trkpt lat="49.44192" lon="3.73264">
        <ele>185.67</ele>
        <time>2021-07-26T17:51:57Z</time>
      </trkpt>
      <trkpt lat="49.44192" lon="3.73264">
        <ele>185.19</ele>
        <time>2021-07-26T17:58:09Z</time>
      </trkpt>
      <trkpt lat="49.44192" lon="3.73264">
        <ele>186.63</ele>
        <time>2021-07-26T18:08:00Z</time>
      </trkpt>
      <trkpt lat="49.44192" lon="3.73264">
        <ele>186.15</ele>
        <time>2021-07-26T18:24:48Z</time>
      </trkpt>
    </trkseg>
  </trk>
</gpx>